Current Weather

Essex County

Caldwell, New Jersey (KCDW)

Report from: Friday, February 23, 2024 2:53 PM EST
Current time: Friday, February 23, 2024 3:35 PM EST

Nearby weather – Weather history – Daily summaries
Weather forecast

Temperature8.9°C (48.0°F)
Wind chill8.3°C (47.0°F)
Dew point2.2°C (36.0°F)
Winds 3 kts (1.5 m/s, 3.5 mph) Vrb
Winds variableWinds variable
Visibility10 mi. (16.1 km)
Clouds Scattered clouds 7,000 ft. (2,134 m)
Altimeter29.46 in.Hg (998 mB)
Relative humidity63 %
Density altitude-103 ft. (-31 m)
Sea-level pressure99.8 kPa (998 mB, 29.47 in.Hg)
Remarks Automated weather observing station with precipitation discriminator
Flight conditions Visual Meteorological Conditions
Raw dataKCDW 231953Z VRB03KT 10SM SCT070 09/02 A2946 RMK AO2 SLP980 T00890022
An error has occurred. This application may no longer respond until reloaded. Reload 🗙